createdAt,value
2022-11-08T00:00:59.905Z,18.80
2022-11-08T00:02:02.326Z,18.70
2022-11-08T00:03:04.816Z,18.70
2022-11-08T00:04:13.571Z,18.30
2022-11-08T00:05:34.624Z,18.20
2022-11-08T00:06:55.669Z,18.40
2022-11-08T00:08:17.048Z,18.60
2022-11-08T00:09:38.360Z,18.80
2022-11-08T00:10:59.419Z,18.90
2022-11-08T00:12:20.592Z,19.00
2022-11-08T00:13:41.618Z,19.00
2022-11-08T00:14:46.403Z,19.10
2022-11-08T00:15:48.735Z,19.10
2022-11-08T00:16:51.074Z,19.10
2022-11-08T00:17:53.593Z,19.20
2022-11-08T00:18:55.961Z,19.20
2022-11-08T00:19:58.561Z,19.20
2022-11-08T00:21:02.402Z,19.30
2022-11-08T00:22:04.784Z,19.30
2022-11-08T00:23:07.447Z,19.30
2022-11-08T00:24:09.811Z,19.40
2022-11-08T00:25:12.143Z,19.40
2022-11-08T00:26:14.531Z,19.50
2022-11-08T00:27:19.440Z,19.50
2022-11-08T00:28:21.989Z,19.50
2022-11-08T00:29:24.284Z,19.50
2022-11-08T00:30:26.713Z,19.50
2022-11-08T00:31:29.173Z,19.50
2022-11-08T00:32:31.677Z,19.50
2022-11-08T00:33:34.612Z,19.50
2022-11-08T00:34:36.904Z,19.50
2022-11-08T00:35:39.271Z,19.50
2022-11-08T00:36:41.639Z,19.50
2022-11-08T00:37:43.966Z,19.50
2022-11-08T00:38:46.306Z,19.50
2022-11-08T00:39:49.325Z,19.50
2022-11-08T00:40:51.694Z,19.60
2022-11-08T00:41:54.117Z,19.60
2022-11-08T00:42:56.434Z,19.60
2022-11-08T00:43:59.029Z,19.60
2022-11-08T00:45:01.359Z,19.60
2022-11-08T00:46:03.809Z,19.60
2022-11-08T00:47:06.219Z,19.70
2022-11-08T00:48:08.700Z,19.70
2022-11-08T00:49:11.300Z,19.70
2022-11-08T00:50:13.760Z,19.80
2022-11-08T00:51:16.263Z,19.80
2022-11-08T00:52:18.778Z,19.80
2022-11-08T00:53:21.183Z,19.80
2022-11-08T00:54:23.673Z,19.80
2022-11-08T00:55:26.029Z,19.80
2022-11-08T00:56:28.455Z,19.80
2022-11-08T00:57:47.245Z,19.80
2022-11-08T00:58:53.150Z,19.80
2022-11-08T00:59:55.460Z,19.80
2022-11-08T01:00:58.050Z,19.80
2022-11-08T01:02:07.490Z,19.80
2022-11-08T01:03:19.584Z,19.80
2022-11-08T01:04:21.955Z,19.80
2022-11-08T01:05:24.320Z,19.80
2022-11-08T01:06:26.798Z,19.80
2022-11-08T01:07:29.240Z,19.80
2022-11-08T01:08:31.628Z,19.80
2022-11-08T01:09:34.164Z,19.80
2022-11-08T01:10:37.088Z,19.80
2022-11-08T01:11:40.169Z,19.80
2022-11-08T01:12:42.573Z,19.80
2022-11-08T01:13:45.741Z,19.80
2022-11-08T01:14:48.086Z,19.80
2022-11-08T01:15:50.583Z,19.80
2022-11-08T01:16:53.024Z,19.70
2022-11-08T01:17:55.384Z,19.70
2022-11-08T01:18:58.702Z,19.70
2022-11-08T01:20:01.119Z,19.70
2022-11-08T01:21:04.796Z,19.70
2022-11-08T01:22:07.200Z,19.70
2022-11-08T01:23:11.008Z,19.70
2022-11-08T01:24:13.389Z,19.70
2022-11-08T01:25:15.736Z,19.60
2022-11-08T01:26:21.229Z,19.70
2022-11-08T01:27:23.616Z,19.60
2022-11-08T01:28:25.954Z,19.60
2022-11-08T01:29:29.859Z,19.60
2022-11-08T01:30:36.014Z,19.60
2022-11-08T01:31:38.360Z,19.60
2022-11-08T01:32:40.750Z,19.60
2022-11-08T01:33:47.151Z,19.60
2022-11-08T01:34:52.506Z,19.60
2022-11-08T01:35:54.830Z,19.60
2022-11-08T01:36:57.162Z,19.60
2022-11-08T01:38:00.879Z,19.60
2022-11-08T01:39:03.327Z,19.50
2022-11-08T01:40:06.421Z,19.50
2022-11-08T01:41:12.237Z,19.50
2022-11-08T01:42:14.661Z,19.50
2022-11-08T01:43:31.424Z,19.50
2022-11-08T01:44:33.998Z,19.50
2022-11-08T01:46:13.829Z,19.50
2022-11-08T01:47:16.200Z,19.50
2022-11-08T01:48:18.955Z,19.50
2022-11-08T01:49:28.357Z,19.50
2022-11-08T01:50:31.097Z,19.50
2022-11-08T01:51:44.234Z,19.50
2022-11-08T01:52:52.264Z,19.50
2022-11-08T01:53:55.639Z,19.50
2022-11-08T01:55:07.288Z,19.60
2022-11-08T01:56:10.939Z,19.50
2022-11-08T01:57:17.882Z,19.60
2022-11-08T01:58:23.988Z,19.60
2022-11-08T01:59:26.825Z,19.60
2022-11-08T02:00:30.328Z,19.50
2022-11-08T02:01:36.994Z,19.50
2022-11-08T02:02:41.876Z,19.50
2022-11-08T02:03:44.667Z,19.50
2022-11-08T02:04:47.950Z,19.60
2022-11-08T02:05:50.344Z,19.60
2022-11-08T02:06:52.979Z,19.60
2022-11-08T02:08:11.985Z,19.60
2022-11-08T02:09:18.488Z,19.60
2022-11-08T02:10:24.911Z,19.50
2022-11-08T02:11:28.234Z,19.60
2022-11-08T02:12:30.590Z,19.60
2022-11-08T02:13:35.070Z,19.60
2022-11-08T02:14:38.082Z,19.60
2022-11-08T02:15:40.897Z,19.60
2022-11-08T02:16:43.476Z,19.60
2022-11-08T02:17:45.952Z,19.60
2022-11-08T02:18:49.298Z,19.60
2022-11-08T02:19:52.025Z,19.60
2022-11-08T02:21:13.251Z,19.60
2022-11-08T02:22:31.279Z,19.60
2022-11-08T02:23:49.541Z,19.60
2022-11-08T02:24:52.324Z,19.60
2022-11-08T02:25:54.870Z,19.70
2022-11-08T02:26:58.680Z,19.70
2022-11-08T02:28:01.082Z,19.70
2022-11-08T02:29:27.516Z,19.80
2022-11-08T02:30:36.848Z,19.80
2022-11-08T02:31:39.155Z,19.80
2022-11-08T02:32:42.505Z,19.90
2022-11-08T02:33:45.820Z,19.90
2022-11-08T02:34:56.005Z,19.90
2022-11-08T02:35:58.976Z,19.90
2022-11-08T02:37:03.127Z,19.90
2022-11-08T02:38:05.506Z,19.90
2022-11-08T02:39:07.931Z,19.90
2022-11-08T02:40:10.774Z,19.90
2022-11-08T02:41:13.102Z,19.90
2022-11-08T02:42:19.982Z,19.90
2022-11-08T02:43:23.833Z,19.80
2022-11-08T02:44:26.151Z,19.80
2022-11-08T02:45:28.545Z,19.80
2022-11-08T02:46:30.981Z,19.80
2022-11-08T02:47:33.310Z,19.70
2022-11-08T02:48:35.765Z,19.80
2022-11-08T02:49:38.165Z,19.70
2022-11-08T02:50:40.891Z,19.70
2022-11-08T02:51:43.265Z,19.70
2022-11-08T02:52:45.616Z,19.70
2022-11-08T02:53:47.945Z,19.70
2022-11-08T02:54:50.267Z,19.70
2022-11-08T02:55:52.636Z,19.70
2022-11-08T02:56:54.969Z,19.70
2022-11-08T02:57:58.031Z,19.70
2022-11-08T02:59:00.370Z,19.70
2022-11-08T03:00:02.794Z,19.70
2022-11-08T03:01:05.653Z,19.70
2022-11-08T03:02:08.353Z,19.80
2022-11-08T03:03:10.750Z,19.80
2022-11-08T03:04:13.259Z,19.80
2022-11-08T03:05:15.594Z,19.80
2022-11-08T03:06:18.010Z,19.80
2022-11-08T03:07:24.667Z,19.70
2022-11-08T03:08:27.430Z,19.80
2022-11-08T03:09:29.787Z,19.70
2022-11-08T03:10:32.162Z,19.70
2022-11-08T03:11:34.656Z,19.70
2022-11-08T03:12:37.385Z,19.70
2022-11-08T03:13:39.686Z,19.60
2022-11-08T03:14:42.092Z,19.60
2022-11-08T03:15:44.472Z,19.60
2022-11-08T03:16:46.820Z,19.60
2022-11-08T03:17:49.259Z,19.60
2022-11-08T03:18:51.720Z,19.60
2022-11-08T03:19:54.070Z,19.60
2022-11-08T03:20:56.491Z,19.60
2022-11-08T03:21:58.901Z,19.60
2022-11-08T03:23:04.135Z,19.60
2022-11-08T03:24:06.907Z,19.60
2022-11-08T03:25:09.430Z,19.50
2022-11-08T03:26:11.879Z,19.60
2022-11-08T03:27:15.213Z,19.50
2022-11-08T03:28:22.445Z,19.60
2022-11-08T03:29:25.366Z,19.60
2022-11-08T03:30:27.699Z,19.50
2022-11-08T03:31:30.046Z,19.50
2022-11-08T03:32:32.554Z,19.50
2022-11-08T03:33:35.410Z,19.50
2022-11-08T03:34:37.715Z,19.50
2022-11-08T03:35:40.160Z,19.50
2022-11-08T03:36:42.506Z,19.50
2022-11-08T03:37:55.360Z,19.50
2022-11-08T03:38:57.715Z,19.50
2022-11-08T03:40:00.042Z,19.50
2022-11-08T03:41:02.383Z,19.40
2022-11-08T03:42:04.931Z,19.50
2022-11-08T03:43:07.367Z,19.50
2022-11-08T03:44:09.704Z,19.50
2022-11-08T03:45:12.886Z,19.50
2022-11-08T03:46:15.218Z,19.40
2022-11-08T03:47:17.557Z,19.40
2022-11-08T03:48:20.479Z,19.40
2022-11-08T03:49:23.279Z,19.40
2022-11-08T03:50:25.620Z,19.40
2022-11-08T03:51:27.970Z,19.40
2022-11-08T03:52:30.271Z,19.50
2022-11-08T03:53:32.598Z,19.50
2022-11-08T03:54:34.963Z,19.40
2022-11-08T03:55:37.315Z,19.40
2022-11-08T03:56:39.578Z,19.40
2022-11-08T03:57:42.685Z,19.40
2022-11-08T03:58:45.017Z,19.40
2022-11-08T03:59:47.324Z,19.40
2022-11-08T04:00:49.642Z,19.40
2022-11-08T04:01:52.017Z,19.40
2022-11-08T04:02:59.805Z,19.30
2022-11-08T04:04:02.158Z,19.30
2022-11-08T04:05:05.345Z,19.30
2022-11-08T04:06:08.206Z,19.30
2022-11-08T04:07:10.703Z,19.30
2022-11-08T04:08:12.973Z,19.30
2022-11-08T04:09:20.365Z,19.30
2022-11-08T04:10:23.708Z,19.40
2022-11-08T04:11:44.502Z,19.30
2022-11-08T04:13:05.593Z,19.30
2022-11-08T04:14:27.617Z,19.30
2022-11-08T04:15:31.001Z,19.30
2022-11-08T04:16:33.681Z,19.30
2022-11-08T04:17:54.452Z,19.30
2022-11-08T04:19:15.398Z,19.40
2022-11-08T04:20:36.416Z,19.50
2022-11-08T04:21:46.511Z,19.50
2022-11-08T04:22:49.198Z,19.50
2022-11-08T04:23:52.539Z,19.40
2022-11-08T04:24:54.907Z,19.50
2022-11-08T04:26:02.172Z,19.40
2022-11-08T04:27:04.563Z,19.50
2022-11-08T04:28:07.284Z,19.40
2022-11-08T04:29:10.049Z,19.40
2022-11-08T04:30:12.797Z,19.40
2022-11-08T04:31:18.605Z,19.40
2022-11-08T04:32:21.040Z,19.50
2022-11-08T04:33:24.280Z,19.50
2022-11-08T04:34:26.733Z,19.50
2022-11-08T04:35:30.915Z,19.50
2022-11-08T04:36:33.941Z,19.50
2022-11-08T04:37:36.316Z,19.50
2022-11-08T04:38:38.719Z,19.50
2022-11-08T04:39:41.047Z,19.50
2022-11-08T04:40:43.536Z,19.50
2022-11-08T04:41:45.812Z,19.50
2022-11-08T04:42:48.167Z,19.50
2022-11-08T04:43:52.038Z,19.50
2022-11-08T04:44:54.335Z,19.40
2022-11-08T04:46:10.808Z,19.40
2022-11-08T04:47:13.226Z,19.40
2022-11-08T04:48:15.948Z,19.30
2022-11-08T04:49:18.615Z,19.40
2022-11-08T04:50:20.904Z,19.40
2022-11-08T04:51:28.775Z,19.40
2022-11-08T04:52:31.064Z,19.40
2022-11-08T04:53:33.804Z,19.40
2022-11-08T04:54:36.157Z,19.40
2022-11-08T04:55:38.492Z,19.40
2022-11-08T04:56:41.887Z,19.40
2022-11-08T04:57:44.188Z,19.40
2022-11-08T04:58:49.387Z,19.30
2022-11-08T04:59:51.728Z,19.30
2022-11-08T05:00:54.682Z,19.30
2022-11-08T05:01:57.077Z,19.30
2022-11-08T05:03:02.019Z,19.30
2022-11-08T05:04:04.590Z,19.30
2022-11-08T05:05:07.616Z,19.30
2022-11-08T05:06:21.757Z,19.40
2022-11-08T05:07:24.333Z,19.40
2022-11-08T05:08:26.665Z,19.50
2022-11-08T05:09:29.102Z,19.50
2022-11-08T05:10:31.484Z,19.50
2022-11-08T05:11:34.034Z,19.50
2022-11-08T05:12:36.442Z,19.50
2022-11-08T05:13:39.373Z,19.50
2022-11-08T05:14:41.672Z,19.50
2022-11-08T05:15:43.986Z,19.50
2022-11-08T05:16:46.349Z,19.50
2022-11-08T05:17:48.694Z,19.60
2022-11-08T05:18:51.694Z,19.60
2022-11-08T05:20:12.689Z,19.60
2022-11-08T05:21:35.735Z,19.60
2022-11-08T05:22:56.899Z,19.60
2022-11-08T05:24:00.237Z,19.60
2022-11-08T05:25:02.584Z,19.60
2022-11-08T05:26:05.450Z,19.60
2022-11-08T05:27:08.836Z,19.60
2022-11-08T05:28:11.145Z,19.60
2022-11-08T05:29:15.189Z,19.60
2022-11-08T05:30:17.649Z,19.60
2022-11-08T05:31:20.005Z,19.60
2022-11-08T05:32:22.390Z,19.60
2022-11-08T05:33:25.050Z,19.60
2022-11-08T05:34:27.458Z,19.60
2022-11-08T05:35:29.775Z,19.60
2022-11-08T05:36:32.135Z,19.60
2022-11-08T05:37:34.560Z,19.60
2022-11-08T05:38:37.587Z,19.60
2022-11-08T05:39:39.914Z,19.60
2022-11-08T05:40:42.475Z,19.60
2022-11-08T05:41:44.874Z,19.60
2022-11-08T05:42:47.235Z,19.60
2022-11-08T05:43:52.627Z,19.60
2022-11-08T05:44:54.981Z,19.50
2022-11-08T05:45:57.860Z,19.50
2022-11-08T05:47:00.188Z,19.50
2022-11-08T05:48:06.327Z,19.50
2022-11-08T05:49:09.142Z,19.50
2022-11-08T05:50:18.275Z,19.50
2022-11-08T05:51:21.870Z,19.50
2022-11-08T05:52:24.196Z,19.60
2022-11-08T05:53:27.662Z,19.60
2022-11-08T05:54:30.088Z,19.60
2022-11-08T05:55:32.447Z,19.60
2022-11-08T05:56:34.802Z,19.50
2022-11-08T05:57:37.354Z,19.00
2022-11-08T05:58:39.658Z,18.60
2022-11-08T05:59:42.075Z,18.30
2022-11-08T06:00:44.492Z,18.10
2022-11-08T06:01:46.935Z,17.90
2022-11-08T06:02:49.395Z,17.80
2022-11-08T06:03:51.913Z,17.70
2022-11-08T06:04:54.297Z,17.60
2022-11-08T06:06:00.922Z,18.00
2022-11-08T06:07:03.326Z,18.30
2022-11-08T06:08:05.648Z,18.60
2022-11-08T06:09:08.609Z,18.80
2022-11-08T06:10:11.212Z,19.00
2022-11-08T06:11:16.406Z,19.20
2022-11-08T06:12:19.985Z,19.40
2022-11-08T06:13:22.383Z,19.50
2022-11-08T06:14:24.786Z,19.60
2022-11-08T06:15:27.790Z,19.70
2022-11-08T06:16:30.155Z,19.80
2022-11-08T06:17:32.890Z,19.90
2022-11-08T06:18:36.201Z,20.00
2022-11-08T06:19:38.578Z,20.10
2022-11-08T06:20:40.920Z,20.10
2022-11-08T06:21:43.329Z,20.20
2022-11-08T06:22:45.656Z,20.20
2022-11-08T06:23:48.361Z,20.30
2022-11-08T06:24:50.726Z,20.40
2022-11-08T06:25:53.604Z,20.40
2022-11-08T06:26:55.996Z,20.40
2022-11-08T06:28:00.144Z,20.50
2022-11-08T06:29:02.511Z,20.50
2022-11-08T06:30:05.692Z,20.60
2022-11-08T06:31:08.171Z,20.50
2022-11-08T06:32:11.219Z,20.50
2022-11-08T06:33:13.589Z,20.50
2022-11-08T06:34:16.055Z,20.50
2022-11-08T06:35:18.413Z,20.50
2022-11-08T06:36:21.446Z,20.50
2022-11-08T06:37:23.834Z,20.50
2022-11-08T06:38:26.251Z,20.50
2022-11-08T06:39:28.621Z,20.50
2022-11-08T06:40:32.306Z,20.50
2022-11-08T06:41:35.024Z,20.50
2022-11-08T06:42:37.395Z,20.60
2022-11-08T06:43:39.813Z,20.60
2022-11-08T06:44:42.227Z,20.60
2022-11-08T06:45:44.658Z,20.70
2022-11-08T06:46:46.983Z,20.60
2022-11-08T06:47:49.416Z,20.70
2022-11-08T06:48:51.777Z,20.70
2022-11-08T06:49:54.088Z,20.70
2022-11-08T06:50:56.474Z,20.70
2022-11-08T06:51:58.790Z,20.80
2022-11-08T06:53:06.869Z,20.80
2022-11-08T06:54:11.164Z,20.70
2022-11-08T06:55:15.643Z,20.90
2022-11-08T06:56:18.057Z,20.90
2022-11-08T06:57:20.538Z,20.90
2022-11-08T06:58:23.143Z,20.90
2022-11-08T06:59:25.574Z,21.00
2022-11-08T07:00:28.370Z,21.00
2022-11-08T07:01:30.812Z,21.00
2022-11-08T07:02:33.406Z,21.00
2022-11-08T07:03:36.253Z,21.00
2022-11-08T07:04:38.656Z,21.10
2022-11-08T07:05:41.026Z,21.20
2022-11-08T07:06:43.831Z,21.30
2022-11-08T07:07:51.911Z,21.30
2022-11-08T07:08:54.383Z,21.20
2022-11-08T07:10:02.312Z,21.20
2022-11-08T07:11:06.863Z,21.20
2022-11-08T07:12:10.048Z,21.30
2022-11-08T07:13:14.187Z,21.30
2022-11-08T07:14:16.522Z,21.30
2022-11-08T07:15:18.991Z,21.30
2022-11-08T07:16:21.385Z,21.30
2022-11-08T07:17:23.992Z,21.20
2022-11-08T07:18:27.243Z,21.30
2022-11-08T07:19:29.616Z,21.20
2022-11-08T07:20:32.084Z,21.20
2022-11-08T07:21:34.525Z,21.20
2022-11-08T07:22:36.899Z,21.20
2022-11-08T07:23:39.250Z,21.20
2022-11-08T07:24:41.632Z,21.20
2022-11-08T07:25:43.990Z,21.20
2022-11-08T07:26:46.382Z,21.20
2022-11-08T07:27:48.870Z,21.30
2022-11-08T07:28:51.182Z,21.30
2022-11-08T07:29:53.619Z,21.30
2022-11-08T07:31:02.114Z,21.30
2022-11-08T07:32:04.745Z,21.30
2022-11-08T07:33:07.076Z,21.20
2022-11-08T07:34:09.786Z,21.10
2022-11-08T07:35:12.133Z,21.10
2022-11-08T07:36:14.678Z,21.10
2022-11-08T07:37:17.032Z,21.00
2022-11-08T07:38:19.899Z,21.00
2022-11-08T07:39:22.589Z,21.00
2022-11-08T07:40:25.327Z,21.10
2022-11-08T07:41:27.897Z,21.20
2022-11-08T07:42:43.834Z,21.30
2022-11-08T07:43:52.705Z,21.40
2022-11-08T07:44:55.317Z,21.50
2022-11-08T07:45:59.991Z,21.60
2022-11-08T07:47:02.442Z,21.60
2022-11-08T07:48:11.445Z,21.70
2022-11-08T07:49:14.557Z,21.70
2022-11-08T07:50:18.062Z,21.80
2022-11-08T07:51:20.594Z,21.80
2022-11-08T07:52:23.031Z,21.80
2022-11-08T07:53:25.567Z,21.80
2022-11-08T07:54:28.033Z,21.90
2022-11-08T07:55:30.485Z,21.90
2022-11-08T07:56:32.777Z,21.90
2022-11-08T07:57:35.232Z,21.90
2022-11-08T07:58:37.970Z,21.90
2022-11-08T07:59:40.589Z,21.90
2022-11-08T08:00:44.515Z,21.90
2022-11-08T08:01:47.126Z,21.90
2022-11-08T08:02:49.717Z,21.90
2022-11-08T08:03:52.149Z,21.90
2022-11-08T08:04:54.496Z,21.90
2022-11-08T08:06:01.048Z,22.00
2022-11-08T08:07:04.234Z,22.00
2022-11-08T08:08:06.758Z,22.00
2022-11-08T08:09:09.151Z,22.00
2022-11-08T08:10:11.753Z,22.00
2022-11-08T08:11:15.093Z,22.00
2022-11-08T08:12:17.460Z,22.00
2022-11-08T08:13:20.119Z,22.00
2022-11-08T08:14:22.917Z,22.00
2022-11-08T08:15:26.037Z,22.00
2022-11-08T08:16:28.578Z,22.00
2022-11-08T08:17:37.658Z,21.90
2022-11-08T08:18:43.720Z,21.90
2022-11-08T08:19:46.214Z,21.90
2022-11-08T08:20:48.693Z,21.90
2022-11-08T08:21:51.368Z,21.90
2022-11-08T08:22:53.687Z,21.90
2022-11-08T08:23:56.054Z,21.60
2022-11-08T08:25:02.864Z,21.40
2022-11-08T08:26:05.833Z,21.30
2022-11-08T08:27:08.259Z,21.30
2022-11-08T08:28:10.919Z,21.30
2022-11-08T08:29:13.292Z,21.30
2022-11-08T08:30:17.263Z,21.20
2022-11-08T08:31:19.606Z,21.10
2022-11-08T08:32:21.980Z,21.10
2022-11-08T08:36:24.944Z,21.00
2022-11-08T08:37:27.485Z,21.20
2022-11-08T08:38:31.347Z,21.30
2022-11-08T08:39:33.852Z,21.40
2022-11-08T08:40:36.303Z,21.40
2022-11-08T08:41:38.831Z,21.40
2022-11-08T08:42:41.125Z,21.40
2022-11-08T08:43:43.476Z,21.40
2022-11-08T08:44:45.965Z,21.40
2022-11-08T08:45:48.951Z,21.40
2022-11-08T08:46:51.279Z,21.40
2022-11-08T08:47:55.090Z,21.40
2022-11-08T08:48:57.448Z,21.40
2022-11-08T08:49:59.829Z,21.40
2022-11-08T08:51:02.182Z,21.50
2022-11-08T08:52:04.749Z,21.50
2022-11-08T08:53:07.543Z,21.50
2022-11-08T08:54:09.873Z,21.50
2022-11-08T08:55:12.442Z,21.50
2022-11-08T08:56:14.799Z,21.60
2022-11-08T08:57:17.170Z,21.60
2022-11-08T08:58:20.965Z,21.60
2022-11-08T09:02:10.591Z,21.60
2022-11-08T09:03:13.552Z,21.70
2022-11-08T09:04:16.048Z,21.80
2022-11-08T09:05:18.896Z,21.80
2022-11-08T09:06:21.627Z,21.90
2022-11-08T09:07:24.032Z,21.90
2022-11-08T09:08:27.384Z,21.90
2022-11-08T09:09:29.741Z,21.90
2022-11-08T09:10:32.041Z,21.80
2022-11-08T09:11:34.406Z,21.80
2022-11-08T09:12:37.161Z,21.80
2022-11-08T09:13:39.469Z,21.80
2022-11-08T09:14:41.750Z,21.70
2022-11-08T09:15:44.030Z,21.70
2022-11-08T09:16:46.353Z,21.70
2022-11-08T09:17:48.723Z,21.80
2022-11-08T09:18:51.094Z,21.80
2022-11-08T09:19:57.148Z,21.80
2022-11-08T09:21:00.379Z,21.80
2022-11-08T09:22:04.059Z,21.80
2022-11-08T09:23:06.613Z,21.70
2022-11-08T09:24:09.017Z,21.60
2022-11-08T09:25:11.408Z,21.60
2022-11-08T09:26:13.729Z,21.60
2022-11-08T09:27:16.212Z,21.60
2022-11-08T09:28:18.816Z,21.60
2022-11-08T09:29:21.384Z,21.60
2022-11-08T09:30:23.697Z,21.70
2022-11-08T09:31:26.286Z,21.70
2022-11-08T09:32:46.598Z,21.70
2022-11-08T09:33:51.441Z,21.70
2022-11-08T09:34:55.223Z,21.70
2022-11-08T09:36:00.269Z,21.80
2022-11-08T09:37:02.633Z,21.70
2022-11-08T09:38:05.534Z,21.70
2022-11-08T09:39:08.302Z,21.70
2022-11-08T09:40:20.814Z,21.70
2022-11-08T09:41:40.279Z,21.70
2022-11-08T09:42:57.316Z,21.80
2022-11-08T09:44:08.600Z,21.80
2022-11-08T09:45:15.105Z,21.80
2022-11-08T09:46:35.371Z,21.80
2022-11-08T09:47:45.703Z,21.80
2022-11-08T09:48:49.291Z,21.80
2022-11-08T09:50:17.414Z,21.70
2022-11-08T09:51:23.109Z,21.80
2022-11-08T09:52:27.875Z,21.90
2022-11-08T09:53:47.776Z,21.90
2022-11-08T09:54:51.861Z,21.90
2022-11-08T09:56:01.482Z,21.90
2022-11-08T09:57:06.287Z,21.90
2022-11-08T09:58:24.068Z,21.90
2022-11-08T09:59:26.461Z,21.90
2022-11-08T10:00:29.354Z,21.90
2022-11-08T10:01:33.782Z,21.90
2022-11-08T10:02:36.727Z,21.90
2022-11-08T10:03:40.419Z,21.90
2022-11-08T10:04:42.959Z,22.00
2022-11-08T10:06:20.171Z,22.00
2022-11-08T10:07:41.623Z,22.00
2022-11-08T10:09:07.992Z,22.10
2022-11-08T10:10:27.904Z,22.10
2022-11-08T10:11:42.223Z,22.20
2022-11-08T10:13:22.610Z,22.30
2022-11-08T10:14:50.678Z,22.30
2022-11-08T10:16:23.014Z,22.30
2022-11-08T10:17:40.113Z,22.30
2022-11-08T10:19:06.390Z,22.20
2022-11-08T10:20:25.194Z,22.10
2022-11-08T10:21:59.749Z,22.10
2022-11-08T10:23:21.473Z,22.10
2022-11-08T10:24:32.979Z,22.20
2022-11-08T10:25:47.534Z,22.20
2022-11-08T10:26:52.669Z,22.20
2022-11-08T10:27:59.077Z,22.20
2022-11-08T10:29:13.674Z,22.20
2022-11-08T10:30:20.501Z,22.20
2022-11-08T10:31:22.900Z,22.20
2022-11-08T10:32:25.511Z,22.30
2022-11-08T10:33:37.701Z,22.30
2022-11-08T10:34:47.906Z,22.40
2022-11-08T10:36:05.731Z,22.40
2022-11-08T10:37:14.272Z,22.50
2022-11-08T10:38:24.913Z,22.40
2022-11-08T10:39:30.026Z,22.50
2022-11-08T10:40:42.919Z,22.50
2022-11-08T10:42:20.486Z,22.50
2022-11-08T10:43:35.212Z,22.50
2022-11-08T10:44:40.399Z,22.50
2022-11-08T10:45:42.924Z,22.50
2022-11-08T10:46:54.782Z,22.30
2022-11-08T10:47:57.311Z,22.30
2022-11-08T10:49:12.949Z,22.10
2022-11-08T10:50:19.572Z,22.00
2022-11-08T10:51:21.845Z,21.90
2022-11-08T10:52:49.084Z,21.80
2022-11-08T10:53:51.339Z,21.80
2022-11-08T10:54:55.588Z,21.70
2022-11-08T10:56:02.731Z,21.90
2022-11-08T10:57:05.080Z,21.90
2022-11-08T10:58:36.057Z,21.90
2022-11-08T10:59:38.445Z,21.90
2022-11-08T11:00:40.744Z,21.90
2022-11-08T11:01:50.437Z,21.80
2022-11-08T11:02:56.617Z,21.70
2022-11-08T11:04:08.799Z,21.70
2022-11-08T11:05:35.529Z,21.70
2022-11-08T11:06:37.945Z,21.70
2022-11-08T11:07:40.297Z,21.60
2022-11-08T11:08:56.215Z,21.70
2022-11-08T11:10:16.227Z,21.70
2022-11-08T11:11:26.314Z,21.60
2022-11-08T11:12:28.592Z,21.60
2022-11-08T11:13:30.872Z,21.60
2022-11-08T11:14:33.180Z,21.60
2022-11-08T11:15:47.337Z,21.50
2022-11-08T11:16:58.401Z,21.50
2022-11-08T11:18:00.823Z,21.50
2022-11-08T11:19:05.682Z,21.60
2022-11-08T11:20:20.519Z,21.60
2022-11-08T11:21:23.955Z,21.60
2022-11-08T11:22:36.017Z,21.50
2022-11-08T11:23:51.512Z,21.50
2022-11-08T11:24:55.102Z,21.50
2022-11-08T11:25:57.740Z,21.50
2022-11-08T11:27:06.359Z,21.50
2022-11-08T11:28:13.921Z,21.50
2022-11-08T11:29:37.652Z,21.50
2022-11-08T11:30:42.064Z,21.60
2022-11-08T11:31:47.425Z,21.70
2022-11-08T11:33:06.802Z,21.60
2022-11-08T11:34:18.345Z,21.60
2022-11-08T11:35:21.579Z,21.60
2022-11-08T11:36:29.424Z,21.50
2022-11-08T11:37:41.172Z,21.50
2022-11-08T11:38:51.302Z,21.40
2022-11-08T11:40:12.514Z,21.30
2022-11-08T11:41:50.673Z,21.10
2022-11-08T11:43:21.134Z,21.40
2022-11-08T11:44:29.953Z,21.40
2022-11-08T11:45:36.299Z,21.50
2022-11-08T11:47:00.099Z,21.50
2022-11-08T11:48:10.158Z,21.50
2022-11-08T11:49:16.754Z,21.70
2022-11-08T11:50:29.539Z,21.70
2022-11-08T11:51:31.939Z,21.70
2022-11-08T11:52:35.069Z,21.70
2022-11-08T11:53:39.763Z,21.80
2022-11-08T11:54:46.306Z,21.80
2022-11-08T11:55:54.467Z,21.60
2022-11-08T11:57:10.272Z,21.20
2022-11-08T11:58:34.103Z,21.00
2022-11-08T11:59:54.935Z,20.70
2022-11-08T12:01:04.990Z,20.50
2022-11-08T12:02:26.265Z,20.40
2022-11-08T12:03:43.767Z,20.40
2022-11-08T12:05:19.708Z,20.40
2022-11-08T12:06:22.894Z,20.20
2022-11-08T12:07:28.172Z,20.30
2022-11-08T12:08:49.574Z,20.40
2022-11-08T12:10:13.019Z,20.40
2022-11-08T12:11:33.023Z,20.40
2022-11-08T12:12:38.545Z,20.30
2022-11-08T12:14:39.676Z,20.40
2022-11-08T12:16:07.745Z,20.40
2022-11-08T12:17:18.861Z,20.40
2022-11-08T12:18:52.234Z,20.40
2022-11-08T12:20:26.673Z,20.40
2022-11-08T12:21:54.175Z,20.50
2022-11-08T12:23:16.949Z,20.60
2022-11-08T12:24:32.955Z,20.60
2022-11-08T12:25:56.031Z,20.80
2022-11-08T12:27:53.371Z,20.80
2022-11-08T12:29:08.228Z,20.80
2022-11-08T12:30:18.247Z,20.70
2022-11-08T12:31:26.724Z,20.70
2022-11-08T12:32:48.158Z,20.70
2022-11-08T12:34:19.754Z,20.70
2022-11-08T12:35:49.630Z,20.70
2022-11-08T12:37:04.872Z,20.70
2022-11-08T12:38:10.053Z,20.70
2022-11-08T12:39:40.995Z,20.70
2022-11-08T12:40:58.614Z,20.70
2022-11-08T12:42:14.341Z,20.70
2022-11-08T12:43:55.357Z,20.70
2022-11-08T12:45:44.781Z,20.70
2022-11-08T12:47:17.572Z,20.60
2022-11-08T12:48:58.349Z,20.60
2022-11-08T12:50:28.669Z,20.70
2022-11-08T12:51:54.187Z,20.70
2022-11-08T12:52:56.418Z,20.60
2022-11-08T12:54:28.686Z,20.70
2022-11-08T12:55:36.233Z,20.70
2022-11-08T12:56:44.199Z,20.60
2022-11-08T12:57:46.964Z,20.60
2022-11-08T12:58:51.782Z,20.60
2022-11-08T13:00:05.565Z,20.60
2022-11-08T13:01:12.322Z,20.60
2022-11-08T13:02:27.604Z,20.60
2022-11-08T13:03:44.074Z,20.60
2022-11-08T13:04:58.424Z,20.60
2022-11-08T13:06:12.557Z,20.60
2022-11-08T13:07:26.944Z,20.60
2022-11-08T13:08:52.342Z,20.70
2022-11-08T13:10:12.834Z,20.80
2022-11-08T13:11:35.882Z,20.90
2022-11-08T13:12:48.487Z,21.10
2022-11-08T13:13:55.100Z,21.10
2022-11-08T13:15:00.868Z,21.20
2022-11-08T13:16:42.022Z,21.20
2022-11-08T13:18:06.938Z,21.30
2022-11-08T13:19:27.812Z,21.30
2022-11-08T13:20:47.784Z,21.40
2022-11-08T13:21:51.898Z,21.40
2022-11-08T13:22:59.122Z,21.40
2022-11-08T13:24:10.043Z,21.50
2022-11-08T13:25:24.567Z,21.50
2022-11-08T13:26:28.237Z,21.60
2022-11-08T13:27:36.469Z,21.50
2022-11-08T13:28:42.109Z,21.40
2022-11-08T13:29:44.455Z,21.40
2022-11-08T13:30:55.232Z,21.40
2022-11-08T13:32:00.719Z,21.40
2022-11-08T13:33:26.661Z,21.50
2022-11-08T13:35:08.425Z,21.70
2022-11-08T13:36:23.138Z,21.60
2022-11-08T13:37:47.249Z,21.60
2022-11-08T13:39:22.414Z,21.60
2022-11-08T13:40:36.416Z,21.60
2022-11-08T13:42:23.798Z,21.60
2022-11-08T13:43:27.524Z,21.60
2022-11-08T13:44:56.227Z,21.60
2022-11-08T13:46:20.162Z,21.60
2022-11-08T13:47:34.550Z,21.60
2022-11-08T13:48:40.547Z,21.70
2022-11-08T13:49:42.887Z,21.70
2022-11-08T13:50:47.571Z,21.70
2022-11-08T13:51:51.481Z,21.70
2022-11-08T13:53:23.850Z,21.70
2022-11-08T13:54:31.735Z,21.60
2022-11-08T13:55:42.903Z,21.60
2022-11-08T13:56:53.728Z,21.60
2022-11-08T13:58:00.141Z,21.60
2022-11-08T13:59:02.518Z,21.70
2022-11-08T14:00:21.022Z,21.60
2022-11-08T14:01:23.314Z,21.80
2022-11-08T14:02:25.636Z,21.80
2022-11-08T14:03:33.644Z,21.70
2022-11-08T14:04:40.162Z,21.70
2022-11-08T14:05:46.712Z,21.70
2022-11-08T14:07:01.250Z,21.70
2022-11-08T14:08:18.212Z,21.70
2022-11-08T14:09:33.659Z,21.70
2022-11-08T14:10:47.309Z,21.70
2022-11-08T14:11:55.587Z,21.70
2022-11-08T14:13:21.731Z,21.70
2022-11-08T14:14:50.524Z,21.70
2022-11-08T14:16:01.341Z,21.70
2022-11-08T14:17:12.299Z,21.70
2022-11-08T14:18:32.372Z,21.70
2022-11-08T14:19:39.542Z,21.70
2022-11-08T14:20:44.903Z,21.60
2022-11-08T14:21:53.122Z,21.60
2022-11-08T14:22:56.806Z,21.60
2022-11-08T14:23:59.247Z,21.60
2022-11-08T14:25:16.770Z,21.60
2022-11-08T14:26:24.111Z,21.60
2022-11-08T14:27:40.712Z,21.60
2022-11-08T14:28:45.354Z,21.60
2022-11-08T14:30:00.147Z,21.60
2022-11-08T14:31:06.290Z,21.60
2022-11-08T14:32:16.477Z,21.60